SWA4350 KBNA-KLGA
Flight info
| Callsign | SWA4350 |
|---|---|
| Flight time | 1h 33m |
| Altitude | 39000 |
| Route | CHADM4 MUNNY TONIO Q34 GVE PROUD2 |
| Aircraft | B38M/M-SDE1FGHILORVWXY/HB1 |
Departure
| Time | 2026-05-06 19:57 |
|---|---|
| Airport | Nashville International Airport (KBNA) |
Arrival
| Time | 2026-05-06 21:31 |
|---|---|
| Airport | LaGuardia Airport (KLGA) |
| Time | Latitude | Longitude | Altitude | Speed | Heading |
|---|---|---|---|---|---|
| 2026-05-06 19:03 | 36.12939 | -86.66964 | 576 ft | 0 kts | 298° |
| 2026-05-06 19:36 | 36.12936 | -86.66957 | 571 ft | 4 kts | 299° |
| 2026-05-06 19:36 | 36.12926 | -86.66933 | 578 ft | 4 kts | 289° |
| 2026-05-06 19:37 | 36.12923 | -86.66914 | 573 ft | 4 kts | 255° |
| 2026-05-06 19:37 | 36.12937 | -86.66888 | 571 ft | 4 kts | 223° |
| 2026-05-06 19:37 | 36.12933 | -86.66891 | 571 ft | 4 kts | 211° |
| 2026-05-06 19:37 | 36.12909 | -86.66894 | 571 ft | 4 kts | 165° |
| 2026-05-06 19:38 | 36.12893 | -86.66878 | 571 ft | 1 kts | 131° |
| 2026-05-06 19:45 | 36.12887 | -86.66869 | 571 ft | 3 kts | 131° |
| 2026-05-06 19:46 | 36.12859 | -86.66830 | 574 ft | 9 kts | 131° |
| 2026-05-06 19:46 | 36.12796 | -86.66784 | 572 ft | 12 kts | 173° |
| 2026-05-06 19:46 | 36.12724 | -86.66825 | 572 ft | 9 kts | 222° |
| 2026-05-06 19:46 | 36.12694 | -86.66858 | 572 ft | 1 kts | 221° |
| 2026-05-06 19:47 | 36.12687 | -86.66865 | 578 ft | 2 kts | 221° |
| 2026-05-06 19:47 | 36.12665 | -86.66889 | 576 ft | 6 kts | 221° |
| 2026-05-06 19:47 | 36.12663 | -86.66950 | 574 ft | 11 kts | 303° |
| 2026-05-06 19:47 | 36.12723 | -86.67039 | 574 ft | 16 kts | 310° |
| 2026-05-06 19:48 | 36.12799 | -86.67148 | 574 ft | 18 kts | 310° |
| 2026-05-06 19:48 | 36.12859 | -86.67244 | 574 ft | 11 kts | 275° |
| 2026-05-06 19:48 | 36.12813 | -86.67321 | 574 ft | 11 kts | 223° |
| 2026-05-06 19:48 | 36.12756 | -86.67387 | 575 ft | 11 kts | 223° |
| 2026-05-06 19:49 | 36.12702 | -86.67440 | 577 ft | 6 kts | 211° |
| 2026-05-06 19:49 | 36.12697 | -86.67444 | 578 ft | 0 kts | 211° |
| 2026-05-06 19:49 | 36.12696 | -86.67445 | 578 ft | 1 kts | 211° |
| 2026-05-06 19:49 | 36.12684 | -86.67453 | 583 ft | 4 kts | 211° |
| 2026-05-06 19:50 | 36.12631 | -86.67490 | 578 ft | 14 kts | 208° |
| 2026-05-06 19:50 | 36.12539 | -86.67579 | 580 ft | 16 kts | 223° |
| 2026-05-06 19:50 | 36.12459 | -86.67664 | 582 ft | 13 kts | 210° |
| 2026-05-06 19:50 | 36.12365 | -86.67712 | 581 ft | 15 kts | 224° |
| 2026-05-06 19:51 | 36.12349 | -86.67832 | 583 ft | 15 kts | 221° |
| 2026-05-06 19:51 | 36.12253 | -86.67876 | 581 ft | 15 kts | 198° |
| 2026-05-06 19:51 | 36.12142 | -86.67921 | 582 ft | 18 kts | 198° |
| 2026-05-06 19:51 | 36.12040 | -86.67962 | 579 ft | 16 kts | 198° |
| 2026-05-06 19:52 | 36.11930 | -86.68009 | 578 ft | 18 kts | 198° |
| 2026-05-06 19:52 | 36.11804 | -86.68064 | 583 ft | 20 kts | 199° |
| 2026-05-06 19:52 | 36.11670 | -86.68117 | 581 ft | 20 kts | 198° |
| 2026-05-06 19:52 | 36.11534 | -86.68171 | 584 ft | 22 kts | 197° |
| 2026-05-06 19:53 | 36.11381 | -86.68232 | 581 ft | 24 kts | 198° |
| 2026-05-06 19:53 | 36.11218 | -86.68298 | 577 ft | 27 kts | 198° |
| 2026-05-06 19:53 | 36.11033 | -86.68374 | 578 ft | 29 kts | 198° |
| 2026-05-06 19:53 | 36.10866 | -86.68440 | 574 ft | 21 kts | 198° |
| 2026-05-06 19:54 | 36.10720 | -86.68498 | 574 ft | 23 kts | 198° |
| 2026-05-06 19:54 | 36.10565 | -86.68560 | 578 ft | 24 kts | 198° |
| 2026-05-06 19:54 | 36.10505 | -86.68584 | 582 ft | 0 kts | 199° |
| 2026-05-06 19:54 | 36.10465 | -86.68601 | 582 ft | 13 kts | 198° |
| 2026-05-06 19:55 | 36.10365 | -86.68641 | 583 ft | 12 kts | 197° |
| 2026-05-06 19:55 | 36.10322 | -86.68690 | 580 ft | 8 kts | 262° |
| 2026-05-06 19:55 | 36.10340 | -86.68760 | 582 ft | 7 kts | 303° |
| 2026-05-06 19:55 | 36.10396 | -86.68772 | 578 ft | 10 kts | 17° |
| 2026-05-06 19:56 | 36.10543 | -86.68712 | 579 ft | 43 kts | 19° |
| 2026-05-06 19:56 | 36.10969 | -86.68546 | 576 ft | 85 kts | 18° |
| 2026-05-06 19:56 | 36.11645 | -86.68274 | 581 ft | 119 kts | 17° |
| 2026-05-06 19:56 | 36.12536 | -86.67924 | 619 ft | 146 kts | 18° |
| 2026-05-06 19:57 | 36.13549 | -86.67487 | 990 ft | 163 kts | 20° |
| 2026-05-06 19:57 | 36.14551 | -86.66721 | 1732 ft | 179 kts | 42° |
| 2026-05-06 19:57 | 36.15411 | -86.65453 | 2324 ft | 204 kts | 51° |
| 2026-05-06 19:57 | 36.16291 | -86.64040 | 3094 ft | 209 kts | 47° |
| 2026-05-06 19:58 | 36.17322 | -86.62619 | 3472 ft | 239 kts | 45° |
| 2026-05-06 19:58 | 36.18437 | -86.61073 | 4265 ft | 243 kts | 46° |
| 2026-05-06 19:58 | 36.19608 | -86.59404 | 4789 ft | 270 kts | 45° |
| 2026-05-06 19:58 | 36.20893 | -86.57652 | 5760 ft | 271 kts | 45° |
| 2026-05-06 19:59 | 36.21919 | -86.55599 | 6241 ft | 295 kts | 70° |
| 2026-05-06 19:59 | 36.22163 | -86.53088 | 6275 ft | 302 kts | 100° |
| 2026-05-06 19:59 | 36.21585 | -86.50571 | 6638 ft | 308 kts | 111° |
| 2026-05-06 19:59 | 36.20944 | -86.48024 | 7538 ft | 311 kts | 110° |
| 2026-05-06 20:00 | 36.20300 | -86.45433 | 8396 ft | 318 kts | 110° |
| 2026-05-06 20:00 | 36.19746 | -86.42754 | 9270 ft | 326 kts | 96° |
| 2026-05-06 20:00 | 36.19740 | -86.39930 | 10147 ft | 331 kts | 89° |
| 2026-05-06 20:00 | 36.19771 | -86.37016 | 10671 ft | 349 kts | 90° |
| 2026-05-06 20:01 | 36.19800 | -86.33923 | 11063 ft | 370 kts | 90° |
| 2026-05-06 20:01 | 36.19831 | -86.30670 | 11547 ft | 385 kts | 90° |
| 2026-05-06 20:01 | 36.19863 | -86.27307 | 12175 ft | 394 kts | 91° |
| 2026-05-06 20:01 | 36.19895 | -86.23906 | 13024 ft | 399 kts | 91° |
| 2026-05-06 20:02 | 36.19927 | -86.20473 | 13774 ft | 406 kts | 92° |
| 2026-05-06 20:02 | 36.19959 | -86.16953 | 14420 ft | 413 kts | 91° |
| 2026-05-06 20:02 | 36.19991 | -86.13361 | 15026 ft | 420 kts | 91° |
| 2026-05-06 20:02 | 36.20021 | -86.09714 | 15672 ft | 427 kts | 91° |
| 2026-05-06 20:03 | 36.20333 | -86.06036 | 16254 ft | 435 kts | 76° |
| 2026-05-06 20:03 | 36.21028 | -86.02362 | 16904 ft | 441 kts | 76° |
| 2026-05-06 20:03 | 36.21729 | -85.98624 | 17410 ft | 449 kts | 76° |
| 2026-05-06 20:03 | 36.22444 | -85.94840 | 18054 ft | 453 kts | 75° |
| 2026-05-06 20:04 | 36.23168 | -85.91010 | 18564 ft | 460 kts | 76° |
| 2026-05-06 20:04 | 36.23897 | -85.87140 | 19191 ft | 463 kts | 76° |
| 2026-05-06 20:04 | 36.24634 | -85.83227 | 19751 ft | 467 kts | 76° |
| 2026-05-06 20:04 | 36.25390 | -85.79301 | 20342 ft | 470 kts | 73° |
| 2026-05-06 20:05 | 36.26421 | -85.75444 | 20894 ft | 473 kts | 69° |
| 2026-05-06 20:05 | 36.27506 | -85.71574 | 21440 ft | 477 kts | 69° |
| 2026-05-06 20:05 | 36.28608 | -85.67675 | 21981 ft | 480 kts | 69° |
| 2026-05-06 20:05 | 36.29703 | -85.63806 | 22507 ft | 484 kts | 69° |
| 2026-05-06 20:06 | 36.30818 | -85.59863 | 23034 ft | 487 kts | 70° |
| 2026-05-06 20:06 | 36.31944 | -85.55879 | 23532 ft | 491 kts | 70° |
| 2026-05-06 20:06 | 36.33077 | -85.51863 | 23919 ft | 495 kts | 70° |
| 2026-05-06 20:06 | 36.34216 | -85.47817 | 24345 ft | 498 kts | 70° |
| 2026-05-06 20:07 | 36.35415 | -85.43771 | 24776 ft | 500 kts | 68° |
| 2026-05-06 20:07 | 36.36689 | -85.39740 | 25203 ft | 503 kts | 68° |
| 2026-05-06 20:07 | 36.37956 | -85.35680 | 25638 ft | 506 kts | 68° |
| 2026-05-06 20:07 | 36.39224 | -85.31592 | 26041 ft | 509 kts | 68° |
| 2026-05-06 20:08 | 36.40495 | -85.27485 | 26450 ft | 512 kts | 68° |
| 2026-05-06 20:08 | 36.41777 | -85.23340 | 26807 ft | 517 kts | 68° |
| 2026-05-06 20:08 | 36.43074 | -85.19141 | 26992 ft | 525 kts | 68° |
| 2026-05-06 20:08 | 36.44383 | -85.14894 | 27425 ft | 527 kts | 68° |
| 2026-05-06 20:09 | 36.45698 | -85.10621 | 27755 ft | 531 kts | 68° |
| 2026-05-06 20:09 | 36.47003 | -85.06375 | 28109 ft | 535 kts | 69° |
| 2026-05-06 20:09 | 36.48332 | -85.02047 | 28524 ft | 536 kts | 69° |
| 2026-05-06 20:09 | 36.49656 | -84.97723 | 29043 ft | 535 kts | 69° |
| 2026-05-06 20:10 | 36.50991 | -84.93380 | 29262 ft | 541 kts | 69° |
| 2026-05-06 20:10 | 36.52340 | -84.89008 | 29256 ft | 540 kts | 69° |
| 2026-05-06 20:10 | 36.55051 | -84.80299 | 29264 ft | 540 kts | 68° |
| 2026-05-06 20:11 | 36.58172 | -84.71821 | 29621 ft | 537 kts | 56° |
| 2026-05-06 20:11 | 36.60014 | -84.67759 | 29961 ft | 542 kts | 60° |
| 2026-05-06 20:11 | 36.61764 | -84.63582 | 30262 ft | 544 kts | 61° |
| 2026-05-06 20:12 | 36.63488 | -84.59394 | 30731 ft | 544 kts | 60° |
| 2026-05-06 20:12 | 36.65215 | -84.55152 | 30712 ft | 555 kts | 61° |
| 2026-05-06 20:12 | 36.68732 | -84.46456 | 31108 ft | 564 kts | 60° |
| 2026-05-06 20:13 | 36.70476 | -84.42140 | 31361 ft | 568 kts | 60° |
| 2026-05-06 20:13 | 36.72255 | -84.37726 | 31638 ft | 570 kts | 60° |
| 2026-05-06 20:13 | 36.74036 | -84.33305 | 31992 ft | 572 kts | 60° |
| 2026-05-06 20:13 | 36.75825 | -84.28857 | 32268 ft | 575 kts | 60° |
| 2026-05-06 20:14 | 36.77617 | -84.24395 | 32658 ft | 574 kts | 60° |
| 2026-05-06 20:14 | 36.79408 | -84.19931 | 32984 ft | 576 kts | 60° |
| 2026-05-06 20:14 | 36.81202 | -84.15449 | 33284 ft | 578 kts | 60° |
| 2026-05-06 20:14 | 36.82997 | -84.10961 | 33663 ft | 577 kts | 60° |
| 2026-05-06 20:15 | 36.84787 | -84.06482 | 34063 ft | 577 kts | 59° |
| 2026-05-06 20:15 | 36.86584 | -84.01978 | 34252 ft | 581 kts | 59° |
| 2026-05-06 20:15 | 36.88394 | -83.97430 | 34440 ft | 584 kts | 59° |
| 2026-05-06 20:15 | 36.90175 | -83.92950 | 34760 ft | 583 kts | 59° |
| 2026-05-06 20:16 | 36.91982 | -83.88404 | 35056 ft | 583 kts | 59° |
| 2026-05-06 20:16 | 36.93777 | -83.83872 | 35401 ft | 581 kts | 58° |
| 2026-05-06 20:16 | 36.95570 | -83.79348 | 35676 ft | 581 kts | 58° |
| 2026-05-06 20:16 | 36.97358 | -83.74820 | 35921 ft | 581 kts | 58° |
| 2026-05-06 20:17 | 36.99153 | -83.70280 | 36156 ft | 581 kts | 58° |
| 2026-05-06 20:17 | 37.00939 | -83.65748 | 36432 ft | 580 kts | 58° |
| 2026-05-06 20:17 | 37.02732 | -83.61199 | 36575 ft | 581 kts | 58° |
| 2026-05-06 20:17 | 37.04511 | -83.56657 | 36822 ft | 581 kts | 58° |
| 2026-05-06 20:18 | 37.06273 | -83.52184 | 37074 ft | 580 kts | 58° |
| 2026-05-06 20:18 | 37.08050 | -83.47650 | 37398 ft | 579 kts | 58° |
| 2026-05-06 20:18 | 37.09821 | -83.43125 | 37657 ft | 578 kts | 58° |
| 2026-05-06 20:18 | 37.11588 | -83.38605 | 37893 ft | 578 kts | 58° |
| 2026-05-06 20:19 | 37.13357 | -83.34073 | 38130 ft | 577 kts | 57° |
| 2026-05-06 20:19 | 37.15119 | -83.29551 | 38350 ft | 577 kts | 57° |
| 2026-05-06 20:19 | 37.16883 | -83.25017 | 38532 ft | 578 kts | 57° |
| 2026-05-06 20:19 | 37.18644 | -83.20488 | 38731 ft | 577 kts | 57° |
| 2026-05-06 20:20 | 37.20398 | -83.15968 | 38892 ft | 577 kts | 58° |
| 2026-05-06 20:20 | 37.22153 | -83.11442 | 38929 ft | 576 kts | 57° |
| 2026-05-06 20:20 | 37.25532 | -83.02420 | 38909 ft | 577 kts | 64° |
| 2026-05-06 20:21 | 37.28293 | -82.92925 | 38958 ft | 580 kts | 65° |
| 2026-05-06 20:21 | 37.31006 | -82.83393 | 38915 ft | 579 kts | 65° |
| 2026-05-06 20:22 | 37.33711 | -82.73845 | 38935 ft | 580 kts | 65° |
| 2026-05-06 20:22 | 37.36407 | -82.64302 | 38960 ft | 579 kts | 65° |
| 2026-05-06 20:23 | 37.39096 | -82.54745 | 38938 ft | 577 kts | 65° |
| 2026-05-06 20:23 | 37.41754 | -82.45260 | 38904 ft | 579 kts | 65° |
| 2026-05-06 20:24 | 37.44427 | -82.35699 | 38906 ft | 579 kts | 65° |
| 2026-05-06 20:24 | 37.47079 | -82.26173 | 38954 ft | 576 kts | 66° |
| 2026-05-06 20:25 | 37.49729 | -82.16620 | 38904 ft | 577 kts | 66° |
| 2026-05-06 20:25 | 37.51926 | -82.08669 | 38896 ft | 578 kts | 66° |
| 2026-05-06 20:26 | 37.54561 | -81.99119 | 38910 ft | 577 kts | 66° |
| 2026-05-06 20:26 | 37.57185 | -81.89545 | 38907 ft | 578 kts | 66° |
| 2026-05-06 20:27 | 37.59813 | -81.79946 | 38903 ft | 578 kts | 66° |
| 2026-05-06 20:27 | 37.62426 | -81.70350 | 38889 ft | 577 kts | 66° |
| 2026-05-06 20:28 | 37.64997 | -81.60882 | 38902 ft | 578 kts | 66° |
| 2026-05-06 20:28 | 37.67590 | -81.51288 | 38903 ft | 577 kts | 66° |
| 2026-05-06 20:29 | 37.70180 | -81.41682 | 38937 ft | 579 kts | 66° |
| 2026-05-06 20:29 | 37.72760 | -81.32072 | 38926 ft | 577 kts | 66° |
| 2026-05-06 20:30 | 37.76616 | -81.17645 | 38950 ft | 577 kts | 66° |
| 2026-05-06 20:31 | 37.78291 | -81.07791 | 38976 ft | 580 kts | 85° |
| 2026-05-06 20:31 | 37.79018 | -80.97595 | 38932 ft | 583 kts | 84° |
| 2026-05-06 20:32 | 37.79709 | -80.87373 | 38923 ft | 584 kts | 84° |
| 2026-05-06 20:32 | 37.80381 | -80.77142 | 38910 ft | 584 kts | 84° |
| 2026-05-06 20:33 | 37.81043 | -80.66915 | 38881 ft | 583 kts | 84° |
| 2026-05-06 20:33 | 37.81698 | -80.56698 | 38972 ft | 583 kts | 84° |
| 2026-05-06 20:34 | 37.82342 | -80.46487 | 38927 ft | 581 kts | 84° |
| 2026-05-06 20:34 | 37.82976 | -80.36285 | 38935 ft | 582 kts | 84° |
| 2026-05-06 20:35 | 37.83602 | -80.26073 | 38929 ft | 581 kts | 84° |
| 2026-05-06 20:35 | 37.84214 | -80.15953 | 38903 ft | 581 kts | 84° |
| 2026-05-06 20:36 | 37.84822 | -80.05747 | 38932 ft | 581 kts | 84° |
| 2026-05-06 20:36 | 37.85420 | -79.95551 | 38940 ft | 580 kts | 84° |
| 2026-05-06 20:37 | 37.86009 | -79.85365 | 38933 ft | 580 kts | 84° |
| 2026-05-06 20:37 | 37.86579 | -79.75202 | 38948 ft | 579 kts | 86° |
| 2026-05-06 20:38 | 37.86921 | -79.65013 | 39081 ft | 578 kts | 86° |
| 2026-05-06 20:38 | 37.87284 | -79.54913 | 39100 ft | 577 kts | 86° |
| 2026-05-06 20:39 | 37.87643 | -79.44746 | 39113 ft | 578 kts | 86° |
| 2026-05-06 20:39 | 37.88002 | -79.34593 | 39096 ft | 575 kts | 84° |
| 2026-05-06 20:40 | 37.89040 | -79.24598 | 39046 ft | 573 kts | 79° |
| 2026-05-06 20:40 | 37.90201 | -79.14616 | 38956 ft | 572 kts | 78° |
| 2026-05-06 20:41 | 37.91360 | -79.04663 | 38893 ft | 573 kts | 78° |
| 2026-05-06 20:41 | 37.92501 | -78.94772 | 38874 ft | 570 kts | 78° |
| 2026-05-06 20:42 | 37.93640 | -78.84840 | 38868 ft | 568 kts | 78° |
| 2026-05-06 20:42 | 37.94770 | -78.74885 | 38877 ft | 572 kts | 78° |
| 2026-05-06 20:43 | 37.95890 | -78.64966 | 38862 ft | 570 kts | 78° |
| 2026-05-06 20:43 | 37.97001 | -78.55026 | 38857 ft | 569 kts | 78° |
| 2026-05-06 20:44 | 37.98101 | -78.45130 | 38876 ft | 569 kts | 78° |
| 2026-05-06 20:44 | 37.99195 | -78.35194 | 38872 ft | 569 kts | 78° |
| 2026-05-06 20:45 | 38.00282 | -78.25249 | 38863 ft | 569 kts | 78° |
| 2026-05-06 20:45 | 38.01311 | -78.15276 | 38858 ft | 571 kts | 83° |
| 2026-05-06 20:46 | 38.01954 | -78.05233 | 38896 ft | 571 kts | 82° |
| 2026-05-06 20:46 | 38.02659 | -77.95195 | 38893 ft | 571 kts | 82° |
| 2026-05-06 20:47 | 38.03353 | -77.85243 | 38900 ft | 569 kts | 83° |
| 2026-05-06 20:47 | 38.04044 | -77.75256 | 38890 ft | 569 kts | 83° |
| 2026-05-06 20:48 | 38.04732 | -77.65221 | 38881 ft | 570 kts | 82° |
| 2026-05-06 20:48 | 38.05408 | -77.55201 | 38883 ft | 570 kts | 82° |
| 2026-05-06 20:49 | 38.06075 | -77.45179 | 38877 ft | 569 kts | 82° |
| 2026-05-06 20:49 | 38.06730 | -77.35228 | 38881 ft | 570 kts | 82° |
| 2026-05-06 20:50 | 38.07380 | -77.25201 | 38883 ft | 570 kts | 82° |
| 2026-05-06 20:50 | 38.08022 | -77.15185 | 38892 ft | 567 kts | 82° |
| 2026-05-06 20:51 | 38.08656 | -77.05225 | 38898 ft | 566 kts | 81° |
| 2026-05-06 20:51 | 38.09344 | -77.00358 | 38868 ft | 554 kts | 64° |
| 2026-05-06 20:51 | 38.10751 | -76.95881 | 38931 ft | 544 kts | 59° |
| 2026-05-06 20:52 | 38.13711 | -76.86979 | 38881 ft | 547 kts | 58° |
| 2026-05-06 20:52 | 38.16733 | -76.78114 | 38885 ft | 547 kts | 59° |
| 2026-05-06 20:53 | 38.19773 | -76.69213 | 38898 ft | 550 kts | 59° |
| 2026-05-06 20:53 | 38.22813 | -76.60286 | 38888 ft | 550 kts | 59° |
| 2026-05-06 20:54 | 38.25830 | -76.51400 | 38895 ft | 550 kts | 59° |
| 2026-05-06 20:54 | 38.29095 | -76.42735 | 38871 ft | 526 kts | 44° |
| 2026-05-06 20:54 | 38.31469 | -76.39436 | 38897 ft | 493 kts | 26° |
| 2026-05-06 20:55 | 38.34152 | -76.36742 | 38895 ft | 495 kts | 26° |
| 2026-05-06 20:55 | 38.39596 | -76.31286 | 38905 ft | 499 kts | 25° |
| 2026-05-06 20:56 | 38.45114 | -76.25864 | 38883 ft | 500 kts | 25° |
| 2026-05-06 20:56 | 38.50600 | -76.20485 | 38772 ft | 501 kts | 25° |
| 2026-05-06 20:56 | 38.53353 | -76.17780 | 38459 ft | 496 kts | 25° |
| 2026-05-06 20:57 | 38.56088 | -76.15093 | 37722 ft | 497 kts | 25° |
| 2026-05-06 20:57 | 38.58841 | -76.12387 | 36794 ft | 502 kts | 26° |
| 2026-05-06 20:57 | 38.61624 | -76.09650 | 35967 ft | 505 kts | 25° |
| 2026-05-06 20:57 | 38.64464 | -76.07000 | 35114 ft | 507 kts | 25° |
| 2026-05-06 20:58 | 38.67327 | -76.04340 | 34269 ft | 512 kts | 26° |
| 2026-05-06 20:58 | 38.70207 | -76.01644 | 33410 ft | 517 kts | 26° |
| 2026-05-06 20:58 | 38.73121 | -75.98911 | 32472 ft | 521 kts | 27° |
| 2026-05-06 20:58 | 38.76053 | -75.96161 | 31590 ft | 525 kts | 27° |
| 2026-05-06 20:59 | 38.78981 | -75.93410 | 30651 ft | 530 kts | 27° |
| 2026-05-06 20:59 | 38.81960 | -75.90608 | 29648 ft | 533 kts | 27° |
| 2026-05-06 20:59 | 38.84947 | -75.87796 | 28810 ft | 531 kts | 27° |
| 2026-05-06 20:59 | 38.87909 | -75.85005 | 28196 ft | 524 kts | 27° |
| 2026-05-06 21:00 | 38.90842 | -75.82239 | 27457 ft | 521 kts | 27° |
| 2026-05-06 21:00 | 38.93747 | -75.79497 | 26932 ft | 514 kts | 27° |
| 2026-05-06 21:00 | 38.96596 | -75.76806 | 26603 ft | 503 kts | 27° |
| 2026-05-06 21:00 | 38.99398 | -75.74161 | 26367 ft | 500 kts | 27° |
| 2026-05-06 21:01 | 39.02200 | -75.71511 | 26111 ft | 499 kts | 27° |
| 2026-05-06 21:01 | 39.04987 | -75.68872 | 25861 ft | 497 kts | 27° |
| 2026-05-06 21:01 | 39.07773 | -75.66232 | 25606 ft | 495 kts | 27° |
| 2026-05-06 21:01 | 39.10540 | -75.63606 | 25356 ft | 493 kts | 27° |
| 2026-05-06 21:02 | 39.13294 | -75.60992 | 25107 ft | 491 kts | 27° |
| 2026-05-06 21:02 | 39.16033 | -75.58388 | 24877 ft | 490 kts | 27° |
| 2026-05-06 21:02 | 39.18732 | -75.55820 | 24621 ft | 488 kts | 27° |
| 2026-05-06 21:02 | 39.21462 | -75.53220 | 24387 ft | 486 kts | 27° |
| 2026-05-06 21:03 | 39.24217 | -75.50724 | 24100 ft | 481 kts | 25° |
| 2026-05-06 21:03 | 39.26980 | -75.48291 | 23877 ft | 480 kts | 25° |
| 2026-05-06 21:03 | 39.29728 | -75.45852 | 23647 ft | 478 kts | 26° |
| 2026-05-06 21:03 | 39.32464 | -75.43415 | 23407 ft | 476 kts | 26° |
| 2026-05-06 21:04 | 39.35186 | -75.40988 | 23136 ft | 475 kts | 26° |
| 2026-05-06 21:04 | 39.37899 | -75.38566 | 22903 ft | 473 kts | 26° |
| 2026-05-06 21:04 | 39.40602 | -75.36152 | 22666 ft | 471 kts | 26° |
| 2026-05-06 21:04 | 39.43290 | -75.33747 | 22428 ft | 469 kts | 26° |
| 2026-05-06 21:05 | 39.45938 | -75.31377 | 22193 ft | 467 kts | 26° |
| 2026-05-06 21:05 | 39.48607 | -75.28986 | 21961 ft | 465 kts | 26° |
| 2026-05-06 21:05 | 39.51237 | -75.26578 | 21597 ft | 460 kts | 28° |
| 2026-05-06 21:05 | 39.53827 | -75.24151 | 21228 ft | 459 kts | 28° |
| 2026-05-06 21:06 | 39.56421 | -75.21727 | 20808 ft | 458 kts | 28° |
| 2026-05-06 21:06 | 39.58973 | -75.19342 | 20303 ft | 453 kts | 28° |
| 2026-05-06 21:06 | 39.61520 | -75.16962 | 19810 ft | 449 kts | 29° |
| 2026-05-06 21:06 | 39.64048 | -75.14597 | 19326 ft | 446 kts | 29° |
| 2026-05-06 21:07 | 39.66557 | -75.12249 | 18856 ft | 442 kts | 30° |
| 2026-05-06 21:07 | 39.69097 | -75.10036 | 18312 ft | 439 kts | 27° |
| 2026-05-06 21:07 | 39.71607 | -75.07885 | 17819 ft | 435 kts | 28° |
| 2026-05-06 21:07 | 39.74120 | -75.05714 | 17321 ft | 431 kts | 28° |
| 2026-05-06 21:08 | 39.76600 | -75.03565 | 16874 ft | 426 kts | 28° |
| 2026-05-06 21:08 | 39.79061 | -75.01431 | 16416 ft | 425 kts | 28° |
| 2026-05-06 21:08 | 39.81475 | -74.99335 | 15963 ft | 422 kts | 28° |
| 2026-05-06 21:08 | 39.83911 | -74.97217 | 15510 ft | 420 kts | 29° |
| 2026-05-06 21:09 | 39.86320 | -74.95059 | 14950 ft | 421 kts | 30° |
| 2026-05-06 21:09 | 39.88715 | -74.92900 | 14647 ft | 415 kts | 29° |
| 2026-05-06 21:09 | 39.91089 | -74.90761 | 14265 ft | 415 kts | 30° |
| 2026-05-06 21:09 | 39.93268 | -74.88270 | 13809 ft | 420 kts | 44° |
| 2026-05-06 21:10 | 39.95221 | -74.85462 | 13319 ft | 414 kts | 44° |
| 2026-05-06 21:10 | 39.97139 | -74.82719 | 13002 ft | 403 kts | 44° |
| 2026-05-06 21:10 | 39.98956 | -74.80119 | 13022 ft | 382 kts | 44° |
| 2026-05-06 21:10 | 40.00721 | -74.77590 | 13023 ft | 362 kts | 44° |
| 2026-05-06 21:11 | 40.02377 | -74.75221 | 13014 ft | 348 kts | 43° |
| 2026-05-06 21:11 | 40.03986 | -74.72914 | 12512 ft | 349 kts | 44° |
| 2026-05-06 21:11 | 40.05634 | -74.70549 | 11809 ft | 354 kts | 44° |
| 2026-05-06 21:11 | 40.07300 | -74.68154 | 11119 ft | 359 kts | 44° |
| 2026-05-06 21:12 | 40.08991 | -74.65724 | 10432 ft | 362 kts | 44° |
| 2026-05-06 21:12 | 40.10686 | -74.63284 | 9965 ft | 359 kts | 44° |
| 2026-05-06 21:12 | 40.12343 | -74.60899 | 9700 ft | 347 kts | 44° |
| 2026-05-06 21:12 | 40.13928 | -74.58615 | 9554 ft | 331 kts | 44° |
| 2026-05-06 21:13 | 40.15431 | -74.56449 | 9445 ft | 323 kts | 44° |
| 2026-05-06 21:13 | 40.16941 | -74.54271 | 9317 ft | 323 kts | 44° |
| 2026-05-06 21:13 | 40.18448 | -74.52097 | 9166 ft | 322 kts | 44° |
| 2026-05-06 21:13 | 40.19946 | -74.49936 | 9024 ft | 320 kts | 43° |
| 2026-05-06 21:14 | 40.21530 | -74.47908 | 8884 ft | 317 kts | 39° |
| 2026-05-06 21:14 | 40.23116 | -74.45917 | 8765 ft | 313 kts | 39° |
| 2026-05-06 21:14 | 40.24644 | -74.43968 | 8711 ft | 300 kts | 39° |
| 2026-05-06 21:14 | 40.26127 | -74.42091 | 8587 ft | 296 kts | 40° |
| 2026-05-06 21:15 | 40.27121 | -74.40830 | 8491 ft | 304 kts | 40° |
| 2026-05-06 21:15 | 40.28658 | -74.38882 | 8453 ft | 310 kts | 40° |
| 2026-05-06 21:15 | 40.30221 | -74.36904 | 8335 ft | 313 kts | 40° |
| 2026-05-06 21:15 | 40.31789 | -74.34921 | 8275 ft | 312 kts | 40° |
| 2026-05-06 21:16 | 40.33352 | -74.32942 | 8291 ft | 313 kts | 39° |
| 2026-05-06 21:16 | 40.34920 | -74.30954 | 8303 ft | 314 kts | 39° |
| 2026-05-06 21:16 | 40.36487 | -74.28966 | 8305 ft | 313 kts | 39° |
| 2026-05-06 21:16 | 40.38052 | -74.26980 | 8302 ft | 313 kts | 39° |
| 2026-05-06 21:17 | 40.39622 | -74.24986 | 8285 ft | 313 kts | 40° |
| 2026-05-06 21:17 | 40.41185 | -74.23000 | 8313 ft | 313 kts | 40° |
| 2026-05-06 21:17 | 40.42730 | -74.21036 | 8313 ft | 313 kts | 40° |
| 2026-05-06 21:17 | 40.44292 | -74.19049 | 8284 ft | 313 kts | 40° |
| 2026-05-06 21:18 | 40.45856 | -74.17057 | 8292 ft | 313 kts | 40° |
| 2026-05-06 21:18 | 40.47416 | -74.15070 | 8330 ft | 313 kts | 40° |
| 2026-05-06 21:18 | 40.48972 | -74.13085 | 8306 ft | 313 kts | 40° |
| 2026-05-06 21:18 | 40.50538 | -74.11089 | 8305 ft | 313 kts | 40° |
| 2026-05-06 21:19 | 40.52133 | -74.09150 | 8289 ft | 310 kts | 32° |
| 2026-05-06 21:19 | 40.53914 | -74.07606 | 8294 ft | 306 kts | 26° |
| 2026-05-06 21:19 | 40.55768 | -74.06404 | 8272 ft | 294 kts | 6° |
| 2026-05-06 21:19 | 40.57776 | -74.06125 | 8324 ft | 287 kts | 355° |
| 2026-05-06 21:20 | 40.59750 | -74.05965 | 8305 ft | 288 kts | 355° |
| 2026-05-06 21:20 | 40.61743 | -74.05805 | 8291 ft | 287 kts | 355° |
| 2026-05-06 21:20 | 40.63701 | -74.05656 | 8292 ft | 287 kts | 354° |
| 2026-05-06 21:20 | 40.65699 | -74.05517 | 8236 ft | 287 kts | 354° |
| 2026-05-06 21:21 | 40.67687 | -74.05379 | 8196 ft | 286 kts | 354° |
| 2026-05-06 21:21 | 40.69679 | -74.05043 | 8139 ft | 295 kts | 11° |
| 2026-05-06 21:21 | 40.71554 | -74.03853 | 8097 ft | 302 kts | 22° |
| 2026-05-06 21:21 | 40.73402 | -74.02535 | 7994 ft | 303 kts | 22° |
| 2026-05-06 21:22 | 40.75263 | -74.01202 | 7691 ft | 305 kts | 22° |
| 2026-05-06 21:22 | 40.77107 | -73.99877 | 7332 ft | 305 kts | 22° |
| 2026-05-06 21:22 | 40.78971 | -73.98539 | 6989 ft | 305 kts | 23° |
| 2026-05-06 21:22 | 40.80840 | -73.97191 | 6638 ft | 306 kts | 23° |
| 2026-05-06 21:23 | 40.82713 | -73.95861 | 6304 ft | 305 kts | 22° |
| 2026-05-06 21:23 | 40.84597 | -73.94566 | 5950 ft | 305 kts | 23° |
| 2026-05-06 21:23 | 40.86489 | -73.93257 | 5574 ft | 308 kts | 24° |
| 2026-05-06 21:23 | 40.88419 | -73.92014 | 5174 ft | 307 kts | 17° |
| 2026-05-06 21:24 | 40.90309 | -73.90765 | 4861 ft | 300 kts | 27° |
| 2026-05-06 21:24 | 40.91974 | -73.89159 | 4619 ft | 290 kts | 33° |
| 2026-05-06 21:24 | 40.93540 | -73.87583 | 4449 ft | 275 kts | 32° |
| 2026-05-06 21:24 | 40.95035 | -73.86120 | 4323 ft | 260 kts | 31° |
| 2026-05-06 21:25 | 40.96271 | -73.84392 | 3953 ft | 265 kts | 59° |
| 2026-05-06 21:25 | 40.96785 | -73.82086 | 3512 ft | 264 kts | 90° |
| 2026-05-06 21:25 | 40.96476 | -73.79824 | 3458 ft | 237 kts | 121° |
| 2026-05-06 21:25 | 40.95553 | -73.78249 | 3420 ft | 200 kts | 153° |
| 2026-05-06 21:26 | 40.94381 | -73.77696 | 3310 ft | 167 kts | 189° |
| 2026-05-06 21:26 | 40.93252 | -73.77893 | 3260 ft | 164 kts | 198° |
| 2026-05-06 21:26 | 40.92127 | -73.78144 | 3148 ft | 161 kts | 197° |
| 2026-05-06 21:26 | 40.91039 | -73.78395 | 3057 ft | 157 kts | 199° |
| 2026-05-06 21:27 | 40.89967 | -73.78683 | 3054 ft | 158 kts | 200° |
| 2026-05-06 21:27 | 40.88900 | -73.79059 | 2804 ft | 159 kts | 206° |
| 2026-05-06 21:27 | 40.87875 | -73.79634 | 2294 ft | 161 kts | 210° |
| 2026-05-06 21:27 | 40.86896 | -73.80271 | 1955 ft | 153 kts | 213° |
| 2026-05-06 21:28 | 40.85988 | -73.80953 | 1794 ft | 151 kts | 215° |
| 2026-05-06 21:28 | 40.85110 | -73.81667 | 1372 ft | 148 kts | 215° |
| 2026-05-06 21:28 | 40.84297 | -73.82352 | 1217 ft | 134 kts | 215° |
| 2026-05-06 21:28 | 40.83513 | -73.82948 | 1137 ft | 129 kts | 214° |
| 2026-05-06 21:29 | 40.82751 | -73.83561 | 1080 ft | 130 kts | 215° |
| 2026-05-06 21:29 | 40.81991 | -73.84210 | 834 ft | 131 kts | 214° |
| 2026-05-06 21:29 | 40.81214 | -73.84855 | 629 ft | 134 kts | 213° |
| 2026-05-06 21:29 | 40.80429 | -73.85480 | 458 ft | 133 kts | 215° |
| 2026-05-06 21:30 | 40.79662 | -73.86136 | 317 ft | 131 kts | 214° |
| 2026-05-06 21:30 | 40.78913 | -73.86761 | 142 ft | 132 kts | 213° |
| 2026-05-06 21:30 | 40.78153 | -73.87390 | 31 ft | 135 kts | 213° |
| 2026-05-06 21:30 | 40.77516 | -73.87920 | 27 ft | 95 kts | 211° |
| 2026-05-06 21:31 | 40.77142 | -73.88229 | 30 ft | 30 kts | 211° |
| 2026-05-06 21:31 | 40.77048 | -73.88166 | 27 ft | 12 kts | 73° |
| 2026-05-06 21:31 | 40.77120 | -73.88097 | 24 ft | 15 kts | 31° |
| 2026-05-06 21:31 | 40.77220 | -73.88014 | 23 ft | 19 kts | 31° |
| 2026-05-06 21:32 | 40.77337 | -73.87919 | 23 ft | 21 kts | 32° |
| 2026-05-06 21:32 | 40.77534 | -73.87757 | 23 ft | 13 kts | 31° |
| 2026-05-06 21:32 | 40.77603 | -73.87691 | 24 ft | 12 kts | 55° |
| 2026-05-06 21:33 | 40.77597 | -73.87612 | 25 ft | 10 kts | 133° |
| 2026-05-06 21:33 | 40.77533 | -73.87556 | 23 ft | 13 kts | 148° |
| 2026-05-06 21:33 | 40.77480 | -73.87462 | 22 ft | 13 kts | 101° |
| 2026-05-06 21:33 | 40.77448 | -73.87344 | 23 ft | 14 kts | 127° |
| 2026-05-06 21:34 | 40.77425 | -73.87231 | 22 ft | 14 kts | 104° |
| 2026-05-06 21:34 | 40.77373 | -73.87109 | 22 ft | 17 kts | 130° |
| 2026-05-06 21:34 | 40.77291 | -73.86999 | 22 ft | 17 kts | 136° |
| 2026-05-06 21:34 | 40.77211 | -73.86883 | 24 ft | 18 kts | 130° |
| 2026-05-06 21:35 | 40.77198 | -73.86772 | 22 ft | 13 kts | 50° |
| 2026-05-06 21:35 | 40.77255 | -73.86702 | 23 ft | 7 kts | 43° |
| 2026-05-06 21:35 | 40.77271 | -73.86701 | 23 ft | 2 kts | 331° |
| 2026-05-06 21:35 | 40.77291 | -73.86726 | 22 ft | 4 kts | 313° |
| 2026-05-06 21:36 | 40.77302 | -73.86741 | 25 ft | 1 kts | 312° |
| 2026-05-06 21:36 | 40.77302 | -73.86742 | 25 ft | 0 kts | 312° |